Flight Track Log - Related Links

Times and Time Zones

All times are in EDT time to prevent confusion due to time zone crossing. See the AAL1624 flight status page for this flight to view local times or setup timezone preferences in your user account.

Time Position Orientation Groundspeed Altitude Reporting Facility
EDT Latitude Longitude Course Direction KTS MPH feet Rate Location/Type
Mon 11:33:32 PM 41.9820 -87.8920 137° Southeast 152 175 1,300  Level FlightAware ADS-B
Mon 11:33:57 PM 41.9700 -87.8760 135° Southeast 148 170 2,400 1,964 Climbing FlightAware ADS-B
Mon 11:34:27 PM 41.9550 -87.8530 131° Southeast 181 208 3,100 1,418 Climbing FlightAware ADS-B
Mon 11:34:52 PM 41.9360 -87.8350 145° Southeast 205 236 3,700 1,636 Climbing FlightAware ADS-B
Mon 11:35:22 PM 41.9130 -87.8560 214° Southwest 228 262 4,600 1,733 Climbing FlightAware ADS-B
Mon 11:35:37 PM 41.9110 -87.8760 262° West 251 289 5,000 1,050 Climbing FlightAware ADS-B
Mon 11:36:02 PM 41.9120 -87.9180 272° West 256 295 5,300 1,636 Climbing FlightAware ADS-B
Mon 11:36:32 PM 41.9130 -87.9620 272° West 253 291 6,500 2,727 Climbing FlightAware ADS-B
Mon 11:36:57 PM 41.9120 -87.9990 268° West 253 291 7,800 3,055 Climbing FlightAware ADS-B
Mon 11:37:27 PM 41.9110 -88.0450 268° West 258 297 9,300 3,040 Climbing FlightAware ADS-B
Mon 11:38:12 PM 41.9090 -88.1210 268° West 273 314 11,600 3,247 Climbing FlightAware ADS-B
Mon 11:38:52 PM 41.9050 -88.1900 266° West 280 322 13,900 2,775 Climbing FlightAware ADS-B
Mon 11:39:32 PM 41.8860 -88.2610 250° West 320 368 15,300 1,765 Climbing FlightAware ADS-B
Mon 11:40:17 PM 41.8630 -88.3560 252° West 363 418 16,400 1,976 Climbing FlightAware ADS-B
Mon 11:40:57 PM 41.8470 -88.4450 256° West 375 432 18,100 2,550 Climbing FlightAware ADS-B
Mon 11:41:37 PM 41.8280 -88.5370 255° West 386 444 19,800 2,329 Climbing FlightAware ADS-B
Mon 11:42:22 PM 41.8040 -88.6370 252° West 398 458 21,400 2,329 Climbing FlightAware ADS-B
Mon 11:43:02 PM 41.7800 -88.7380 252° West 404 465 23,100 2,259 Climbing FlightAware ADS-B
Mon 11:43:47 PM 41.7550 -88.8450 253° West 411 473 24,600 1,976 Climbing FlightAware ADS-B
Mon 11:44:27 PM 41.7330 -88.9390 253° West 417 480 25,900 1,800 Climbing FlightAware ADS-B
Mon 11:45:07 PM 41.7100 -89.0410 253° West 424 488 27,000 1,694 Climbing FlightAware ADS-B
Mon 11:45:52 PM 41.6820 -89.1570 252° West 429 494 28,300 1,694 Climbing FlightAware ADS-B
Mon 11:46:32 PM 41.6590 -89.2540 252° West 433 498 29,400 1,835 Climbing FlightAware ADS-B
Mon 11:47:17 PM 41.6330 -89.3650 253° West 430 495 30,900 2,188 Climbing FlightAware ADS-B
Mon 11:47:57 PM 41.6080 -89.4700 252° West 423 487 32,500 1,906 Climbing FlightAware ADS-B
Mon 11:48:42 PM 41.5810 -89.5820 252° West 424 488 33,600 1,341 Climbing FlightAware ADS-B
Mon 11:49:22 PM 41.5560 -89.6850 252° West 431 496 34,400 1,275 Climbing FlightAware ADS-B
Mon 11:50:02 PM 41.5320 -89.7830 252° West 432 497 35,300 1,482 Climbing FlightAware ADS-B
Mon 11:50:47 PM 41.5040 -89.8990 252° West 428 493 36,500 1,482 Climbing FlightAware ADS-B
Mon 11:51:27 PM 41.4800 -89.9990 252° West 426 490 37,400 1,275 Climbing FlightAware ADS-B
Mon 11:52:07 PM 41.4560 -90.0970 252° West 425 489 38,200 1,059 Climbing FlightAware ADS-B
Mon 11:52:52 PM 41.4290 -90.2060 252° West 424 488 38,900 1,059 Climbing FlightAware ADS-B
Mon 11:53:32 PM 41.4040 -90.3040 251° West 420 483 39,700 776 Climbing FlightAware ADS-B
Mon 11:54:17 PM 41.3600 -90.4090 241° Southwest 425 489 40,000 212 Climbing FlightAware ADS-B
Mon 11:54:57 PM 41.3180 -90.4980 238° Southwest 426 490 40,000  Level FlightAware ADS-B
Mon 11:55:42 PM 41.2710 -90.5960 237° Southwest 427 491 40,000  Level FlightAware ADS-B
Mon 11:56:22 PM 41.2290 -90.6840 238° Southwest 430 495 40,000  Level FlightAware ADS-B
Mon 11:57:02 PM 41.1880 -90.7700 238° Southwest 431 496 40,000  Level FlightAware ADS-B
Mon 11:57:47 PM 41.1390 -90.8740 238° Southwest 431 496 40,000  Level FlightAware ADS-B
Mon 11:58:27 PM 41.0960 -90.9640 238° Southwest 428 493 40,000  Level FlightAware ADS-B
Mon 11:59:07 PM 41.0530 -91.0530 237° Southwest 426 490 40,000  Level FlightAware ADS-B
Mon 11:59:52 PM 41.0070 -91.1490 238° Southwest 426 490 40,000  Level FlightAware ADS-B
Tue 12:00:32 AM 40.9650 -91.2360 237° Southwest 426 490 40,000  Level FlightAware ADS-B
Tue 12:01:17 AM 40.9150 -91.3370 237° Southwest 425 489 40,000  Level FlightAware ADS-B
Tue 12:01:57 AM 40.8730 -91.4240 237° Southwest 424 488 40,000  Level FlightAware ADS-B
Tue 12:02:37 AM 40.8320 -91.5090 238° Southwest 424 488 40,000  Level FlightAware ADS-B
Tue 12:03:22 AM 40.7830 -91.6080 237° Southwest 424 488 40,000  Level FlightAware ADS-B
Tue 12:04:02 AM 40.7410 -91.6930 237° Southwest 424 488 40,000  Level FlightAware ADS-B
Tue 12:04:42 AM 40.6980 -91.7810 237° Southwest 424 488 40,000  Level FlightAware ADS-B
Tue 12:05:27 AM 40.6540 -91.8710 237° Southwest 425 489 40,000  Level FlightAware ADS-B
Tue 12:06:07 AM 40.6060 -91.9680 237° Southwest 425 489 40,000 -273 Level FlightAware ADS-B
Tue 12:07:17 AM 40.5330 -92.1140 237° Southwest 426 490 39,500 -626 Descending FlightAware ADS-B
Tue 12:08:02 AM 40.4840 -92.2140 237° Southwest 430 495 38,800 -975 Descending FlightAware ADS-B
Tue 12:08:37 AM 40.4470 -92.2880 237° Southwest 436 502 38,200 -988 Descending FlightAware ADS-B
Tue 12:09:27 AM 40.3880 -92.4030 236° Southwest 442 509 37,400 -933 Descending FlightAware ADS-B
Tue 12:10:07 AM 40.3420 -92.4940 236° Southwest 446 513 36,800 -975 Descending FlightAware ADS-B
Tue 12:10:47 AM 40.2980 -92.5820 237° Southwest 449 517 36,100 -988 Descending FlightAware ADS-B
Tue 12:11:32 AM 40.2450 -92.6870 237° Southwest 446 513 35,400 -1,129 Descending FlightAware ADS-B
Tue 12:12:12 AM 40.1990 -92.7780 237° Southwest 443 510 34,500 -2,329 Descending FlightAware ADS-B
Tue 12:12:57 AM 40.1490 -92.8750 236° Southwest 449 517 32,100 -3,176 Descending FlightAware ADS-B
Tue 12:13:37 AM 40.1030 -92.9660 237° Southwest 451 519 30,000 -2,925 Descending FlightAware ADS-B
Tue 12:14:17 AM 40.0570 -93.0570 237° Southwest 444 511 28,200 -2,682 Descending FlightAware ADS-B
Tue 12:15:02 AM 40.0050 -93.1570 236° Southwest 430 495 26,200 -2,682 Descending FlightAware ADS-B
Tue 12:15:42 AM 39.9610 -93.2420 236° Southwest 415 478 24,400 -2,541 Descending FlightAware ADS-B
Tue 12:16:27 AM 39.9150 -93.3300 236° Southwest 402 463 22,600 -2,400 Descending FlightAware ADS-B
Tue 12:17:07 AM 39.8740 -93.4100 236° Southwest 390 449 21,000 -2,400 Descending FlightAware ADS-B
Tue 12:17:47 AM 39.8340 -93.4870 236° Southwest 379 436 19,400 -2,400 Descending FlightAware ADS-B
Tue 12:18:32 AM 39.7900 -93.5710 236° Southwest 367 422 17,600 -2,259 Descending FlightAware ADS-B
Tue 12:19:12 AM 39.7520 -93.6440 236° Southwest 355 409 16,200 -2,118 Descending FlightAware ADS-B
Tue 12:19:57 AM 39.7130 -93.7180 236° Southwest 343 395 14,600 -2,118 Descending FlightAware ADS-B
Tue 12:20:37 AM 39.6770 -93.7860 235° Southwest 335 386 13,200 -1,650 Descending FlightAware ADS-B
Tue 12:21:17 AM 39.6430 -93.8510 236° Southwest 313 360 12,400 -1,129 Descending FlightAware ADS-B
Tue 12:22:02 AM 39.6070 -93.9220 237° Southwest 308 354 11,600 -1,059 Descending FlightAware ADS-B
Tue 12:22:42 AM 39.5770 -93.9830 237° Southwest 288 331 10,900 -1,059 Descending FlightAware ADS-B
Tue 12:23:27 AM 39.5460 -94.0430 236° Southwest 269 310 10,100 -1,029 Descending FlightAware ADS-B
Tue 12:23:52 AM 39.5290 -94.0790 239° Southwest 262 302 9,700 -1,091 Descending FlightAware ADS-B
Tue 12:24:22 AM 39.5210 -94.1240 257° West 259 298 9,100 -1,091 Descending FlightAware ADS-B
Tue 12:24:47 AM 39.5160 -94.1590 260° West 253 291 8,700 -982 Descending FlightAware ADS-B
Tue 12:25:17 AM 39.5100 -94.2050 260° West 246 283 8,200 -500 Descending FlightAware ADS-B
Tue 12:25:47 AM 39.4990 -94.2470 251° West 248 285 8,200 -327 Level FlightAware ADS-B
Tue 12:26:12 AM 39.4900 -94.2840 253° West 241 277 7,900 -982 Descending FlightAware ADS-B
Tue 12:26:42 AM 39.4790 -94.3230 250° West 237 273 7,300 -1,200 Descending FlightAware ADS-B
Tue 12:27:07 AM 39.4710 -94.3550 252° West 235 270 6,800 -1,200 Descending FlightAware ADS-B
Tue 12:27:32 AM 39.4630 -94.3880 253° West 234 269 6,300 -1,333 Descending FlightAware ADS-B
Tue 12:27:52 AM 39.4550 -94.4170 250° West 230 265 5,800 -1,200 Descending FlightAware ADS-B
Tue 12:28:17 AM 39.4470 -94.4470 251° West 227 261 5,400 -982 Descending FlightAware ADS-B
Tue 12:28:47 AM 39.4370 -94.4850 251° West 222 255 4,900 -1,000 Descending FlightAware ADS-B
Tue 12:29:17 AM 39.4280 -94.5200 252° West 207 238 4,400 -1,050 Descending FlightAware ADS-B
Tue 12:29:27 AM 39.4250 -94.5330 253° West 204 235 4,200 -600 Descending FlightAware ADS-B
Tue 12:30:07 AM 39.4140 -94.5760 252° West 197 227 3,900 -1,139 Descending FlightAware ADS-B
Tue 12:30:46 AM 39.4042 -94.6117 252° West 187 215 2,700 -848 Descending Kansas City Center
Tue 12:31:46 AM 39.3900 -94.6658 251° West 168 193 2,500 -347 Descending Kansas City Center
Tue 12:32:47 AM 39.3583 -94.6864 207° Southwest 120 138 2,000 -492 Descending Kansas City Center

Login

Don't have an account? Register now (free) for customized features, flight alerts, and more!